Time;durP1;ratioP1;P1;durP2;ratioP2;P2;SDS_P1;SDS_P2;PMS_P1;PMS_P2;Temp;Humidity;BMP_temperature;BMP_pressure;BME280_temperature;BME280_humidity;BME280_pressure;Samples;Min_cycle;Max_cycle;Signal;HPM_P1;HPM_P2
2020/12/28 00:00:45;;;;;;;0.40;0.40;;;4.20;53.30;;;;;;4976911;28;20030;-89
2020/12/28 00:03:10;;;;;;;0.50;0.50;;;4.20;52.50;;;;;;4976498;28;20030;-89
2020/12/28 00:05:36;;;;;;;0.63;0.63;;;4.30;52.70;;;;;;4976231;28;20511;-89
2020/12/28 00:08:02;;;;;;;0.50;0.50;;;4.30;52.70;;;;;;4976786;28;20048;-88
2020/12/28 00:10:27;;;;;;;0.63;0.63;;;4.40;52.40;;;;;;4976537;28;20026;-89
2020/12/28 00:12:53;;;;;;;1.83;0.70;;;4.30;53.10;;;;;;4976209;28;20022;-89
2020/12/28 00:15:20;;;;;;;0.50;0.50;;;4.30;53.00;;;;;;4976049;28;20056;-88
2020/12/28 00:17:47;;;;;;;0.75;0.47;;;4.40;52.20;;;;;;4976334;28;20114;-89
2020/12/28 00:20:13;;;;;;;1.77;0.63;;;4.50;51.50;;;;;;4976372;28;20538;-88
2020/12/28 00:22:40;;;;;;;0.73;0.50;;;4.60;51.10;;;;;;4976318;28;20084;-88
2020/12/28 00:25:06;;;;;;;0.82;0.63;;;4.60;51.20;;;;;;4975741;28;20498;-89
2020/12/28 00:27:32;;;;;;;3.92;0.60;;;4.60;52.10;;;;;;4975984;28;20032;-90
2020/12/28 00:29:57;;;;;;;7.03;0.63;;;4.50;53.10;;;;;;4976272;28;20026;-89
2020/12/28 00:32:23;;;;;;;0.45;0.45;;;4.50;54.00;;;;;;4975864;28;20029;-89
2020/12/28 00:34:49;;;;;;;0.63;0.63;;;4.50;54.20;;;;;;4975364;28;20018;-87
2020/12/28 00:37:14;;;;;;;2.20;1.58;;;4.50;56.00;;;;;;4975871;28;20029;-87
2020/12/28 00:39:40;;;;;;;26.52;3.88;;;4.40;58.30;;;;;;4975939;28;20399;-87
2020/12/28 00:42:06;;;;;;;5.28;2.38;;;4.20;61.90;;;;;;4975857;28;20026;-87
2020/12/28 00:44:31;;;;;;;4.93;2.40;;;4.00;64.10;;;;;;4975277;28;20483;-87
2020/12/28 00:46:57;;;;;;;4.97;2.53;;;3.60;66.40;;;;;;4991914;28;20686;-87
2020/12/28 00:49:23;;;;;;;9.95;2.60;;;3.60;67.40;;;;;;4975575;28;20030;-87
2020/12/28 00:51:48;;;;;;;4.57;2.00;;;3.60;67.40;;;;;;4975959;28;20023;-88
2020/12/28 00:54:14;;;;;;;4.50;2.20;;;3.70;66.50;;;;;;4977584;28;20030;-88
2020/12/28 00:56:39;;;;;;;3.55;2.13;;;3.80;66.80;;;;;;4975588;28;20029;-87
2020/12/28 00:59:05;;;;;;;15.23;2.08;;;4.00;67.10;;;;;;4975452;28;20443;-87
2020/12/28 01:01:31;;;;;;;26.55;2.28;;;4.10;66.40;;;;;;4975379;28;20030;-88
2020/12/28 01:03:56;;;;;;;10.35;1.73;;;4.10;65.60;;;;;;4975398;28;20069;-87
2020/12/28 01:06:22;;;;;;;11.13;1.92;;;4.10;64.40;;;;;;4975057;28;20105;-88
2020/12/28 01:08:48;;;;;;;4.25;1.67;;;4.20;64.10;;;;;;4975596;28;20026;-87
2020/12/28 01:11:20;;;;;;;5.93;3.55;;;4.30;64.60;;;;;;4974554;28;20026;-87
2020/12/28 01:13:46;;;;;;;6.57;3.72;;;4.20;64.90;;;;;;4975231;28;20522;-88
2020/12/28 01:16:12;;;;;;;7.13;3.97;;;4.00;67.10;;;;;;4975040;28;20022;-88
2020/12/28 01:18:37;;;;;;;211.82;17.90;;;3.80;68.50;;;;;;4975202;28;20021;-88
2020/12/28 01:21:03;;;;;;;92.47;7.20;;;3.60;69.50;;;;;;4975007;28;20488;-88
2020/12/28 01:23:28;;;;;;;47.60;5.90;;;3.60;70.40;;;;;;4975189;28;20452;-87
2020/12/28 01:25:55;;;;;;;16.88;5.13;;;3.70;70.60;;;;;;4974683;28;20037;-87
2020/12/28 01:28:21;;;;;;;25.98;5.18;;;3.80;70.50;;;;;;4975215;28;20069;-87
2020/12/28 01:30:46;;;;;;;41.45;6.03;;;3.70;70.10;;;;;;4974922;28;20466;-87
2020/12/28 01:33:12;;;;;;;60.33;5.55;;;3.60;70.20;;;;;;4975158;28;20050;-87
2020/12/28 01:35:38;;;;;;;40.28;6.70;;;3.60;70.90;;;;;;4974622;28;20031;-87
2020/12/28 01:38:03;;;;;;;48.53;4.22;;;3.70;71.40;;;;;;4974822;28;20125;-87
2020/12/28 01:40:33;;;;;;;51.55;4.95;;;3.70;71.50;;;;;;4974907;28;20112;-87
2020/12/28 01:42:59;;;;;;;17.33;4.00;;;3.50;71.20;;;;;;4974830;28;20100;-87
2020/12/28 01:45:25;;;;;;;27.90;4.63;;;3.40;71.80;;;;;;4974439;28;20504;-87
2020/12/28 01:47:51;;;;;;;12.40;3.88;;;3.40;72.30;;;;;;4974915;28;20033;-87
2020/12/28 01:50:17;;;;;;;6.60;2.50;;;3.30;72.40;;;;;;4974799;28;20392;-87
2020/12/28 01:52:43;;;;;;;13.15;3.00;;;3.20;72.20;;;;;;4974618;28;20088;-87
2020/12/28 01:55:09;;;;;;;64.40;5.88;;;3.20;72.80;;;;;;4974330;28;20113;-87
2020/12/28 01:57:35;;;;;;;26.60;3.67;;;3.10;73.30;;;;;;4975026;28;20045;-87
2020/12/28 02:00:02;;;;;;;34.63;5.97;;;3.10;74.00;;;;;;4974616;28;20476;-87
2020/12/28 02:02:30;;;;;;;24.52;4.38;;;3.10;73.90;;;;;;4974887;28;20526;-87
2020/12/28 02:04:56;;;;;;;14.30;3.50;;;3.10;74.40;;;;;;4974269;28;20105;-87
2020/12/28 02:07:23;;;;;;;17.48;3.75;;;3.10;73.90;;;;;;4974584;28;20123;-87
2020/12/28 02:09:49;;;;;;;18.08;4.32;;;3.30;74.30;;;;;;4974624;28;20026;-87
2020/12/28 02:12:15;;;;;;;16.70;3.20;;;3.20;74.60;;;;;;4974540;28;20177;-87
2020/12/28 02:14:40;;;;;;;24.27;4.55;;;3.30;74.20;;;;;;4974152;28;20030;-87
2020/12/28 02:17:06;;;;;;;15.00;3.25;;;3.40;73.40;;;;;;4974602;28;20029;-88
2020/12/28 02:19:32;;;;;;;11.00;3.30;;;3.40;72.40;;;;;;4990938;28;20214;-87
2020/12/28 02:21:58;;;;;;;13.88;3.42;;;3.10;72.10;;;;;;4974848;28;20026;-87
2020/12/28 02:24:24;;;;;;;10.93;2.70;;;3.10;73.50;;;;;;4977843;28;20038;-86
2020/12/28 02:26:49;;;;;;;6.13;2.60;;;3.20;74.00;;;;;;4978283;28;20033;-87
2020/12/28 02:29:15;;;;;;;45.50;4.68;;;3.20;74.00;;;;;;4994453;28;20057;-86
2020/12/28 02:31:41;;;;;;;26.52;4.03;;;3.00;74.40;;;;;;4978057;28;20027;-87
2020/12/28 02:34:07;;;;;;;20.95;3.60;;;3.00;75.20;;;;;;4977868;28;20077;-88
2020/12/28 02:36:32;;;;;;;5.85;2.80;;;3.10;75.40;;;;;;4978103;28;20026;-87
2020/12/28 02:38:59;;;;;;;18.00;4.13;;;3.10;75.90;;;;;;4994549;28;20130;-87
2020/12/28 02:41:25;;;;;;;11.48;2.78;;;3.00;75.80;;;;;;4994363;28;20158;-86
2020/12/28 02:43:51;;;;;;;8.05;2.65;;;2.80;76.50;;;;;;4994421;28;20022;-87
2020/12/28 02:46:17;;;;;;;86.15;6.85;;;2.90;76.90;;;;;;4977610;28;20487;-86
2020/12/28 02:48:43;;;;;;;5.65;2.53;;;2.90;76.70;;;;;;4977991;28;20030;-87
2020/12/28 02:51:11;;;;;;;38.30;4.95;;;2.80;76.90;;;;;;4977939;28;20030;-88
2020/12/28 02:53:37;;;;;;;6.63;2.88;;;2.60;77.50;;;;;;4977752;28;20025;-87
2020/12/28 02:56:03;;;;;;;26.38;3.55;;;2.60;77.80;;;;;;4977343;28;20019;-88
2020/12/28 02:58:28;;;;;;;82.75;7.50;;;2.50;78.20;;;;;;4977775;28;20022;-87
2020/12/28 03:00:54;;;;;;;14.77;2.70;;;2.60;78.10;;;;;;4977907;28;20049;-87
2020/12/28 03:03:20;;;;;;;16.92;2.90;;;2.60;78.50;;;;;;4977544;28;20117;-88
2020/12/28 03:05:45;;;;;;;28.23;2.53;;;2.60;78.70;;;;;;4977401;28;20023;-87
2020/12/28 03:08:11;;;;;;;103.30;10.25;;;2.70;77.40;;;;;;4977757;28;20027;-87
2020/12/28 03:10:37;;;;;;;38.72;3.92;;;2.70;76.90;;;;;;4977373;28;20113;-87
2020/12/28 03:13:02;;;;;;;8.32;2.60;;;2.60;78.10;;;;;;4977533;28;20054;-87
2020/12/28 03:15:28;;;;;;;5.13;2.20;;;2.70;78.40;;;;;;4977038;28;20508;-86
2020/12/28 03:17:54;;;;;;;8.48;2.00;;;2.70;78.80;;;;;;4977635;28;20030;-87
2020/12/28 03:20:25;;;;;;;7.70;2.13;;;2.70;79.40;;;;;;4977229;28;20483;-87
2020/12/28 03:22:51;;;;;;;8.95;2.33;;;2.60;79.60;;;;;;4977265;28;20049;-87
2020/12/28 03:25:17;;;;;;;4.95;1.63;;;2.40;80.20;;;;;;4976637;28;20450;-88
2020/12/28 03:27:42;;;;;;;1.77;1.00;;;2.30;80.40;;;;;;4977265;28;20118;-87
2020/12/28 03:30:08;;;;;;;90.03;5.43;;;2.30;80.80;;;;;;4993621;28;20049;-87
2020/12/28 03:32:34;;;;;;;3.72;1.40;;;2.20;80.30;;;;;;4976593;28;20511;-87
2020/12/28 03:34:59;;;;;;;8.23;1.20;;;2.20;81.20;;;;;;4976531;28;20052;-88
2020/12/28 03:37:25;;;;;;;2.38;0.75;;;2.20;81.40;;;;;;4993223;28;20026;-88
2020/12/28 03:39:51;;;;;;;18.88;1.45;;;2.40;80.30;;;;;;4976931;28;20018;-87
2020/12/28 03:42:16;;;;;;;1.55;0.82;;;2.50;79.60;;;;;;4976751;28;20022;-87
2020/12/28 03:44:42;;;;;;;1.50;1.40;;;2.50;80.80;;;;;;4976319;28;20037;-88
2020/12/28 03:47:07;;;;;;;48.55;4.43;;;2.40;80.80;;;;;;4976796;28;20487;-87
2020/12/28 03:49:33;;;;;;;5.32;1.30;;;2.30;81.60;;;;;;4976990;28;20034;-87
2020/12/28 03:51:59;;;;;;;4.05;2.53;;;2.30;83.20;;;;;;4976638;28;20114;-87
2020/12/28 03:54:24;;;;;;;2.25;1.60;;;2.40;82.90;;;;;;4976358;28;20887;-88
2020/12/28 03:56:50;;;;;;;13.30;1.45;;;2.30;82.20;;;;;;4976717;28;20505;-88
2020/12/28 03:59:16;;;;;;;18.77;2.10;;;2.30;82.30;;;;;;4992794;28;20022;-88
2020/12/28 04:01:41;;;;;;;5.57;1.10;;;2.30;81.60;;;;;;4976220;28;20033;-88
2020/12/28 04:04:07;;;;;;;12.95;1.90;;;2.40;82.10;;;;;;4976018;28;20030;-88
2020/12/28 04:06:33;;;;;;;4.18;1.10;;;2.50;81.20;;;;;;4976202;28;20034;-87
2020/12/28 04:08:58;;;;;;;6.68;1.00;;;2.50;81.00;;;;;;4976342;28;20041;-88
2020/12/28 04:11:24;;;;;;;1.98;1.27;;;2.60;81.10;;;;;;4975979;28;20060;-88
2020/12/28 04:13:50;;;;;;;9.30;1.95;;;2.70;81.00;;;;;;4976304;28;20054;-88
2020/12/28 04:16:16;;;;;;;5.53;1.20;;;2.50;80.30;;;;;;4991828;28;20026;-87
2020/12/28 04:18:42;;;;;;;1.17;1.00;;;2.40;80.80;;;;;;4992522;28;20022;-87
2020/12/28 04:21:08;;;;;;;90.32;4.78;;;2.60;81.40;;;;;;4976005;28;20092;-88
2020/12/28 04:23:34;;;;;;;40.78;2.78;;;2.80;80.50;;;;;;4977827;28;20032;-88
2020/12/28 04:25:59;;;;;;;23.73;3.53;;;2.90;80.10;;;;;;4975931;28;20113;-89
2020/12/28 04:28:25;;;;;;;90.80;5.65;;;2.90;79.40;;;;;;4975950;28;20026;-89
2020/12/28 04:30:51;;;;;;;26.65;2.53;;;2.80;80.30;;;;;;4975019;28;20030;-89
2020/12/28 04:33:17;;;;;;;15.52;1.90;;;2.90;79.40;;;;;;4975930;28;20050;-88
2020/12/28 04:35:42;;;;;;;14.43;1.30;;;2.80;79.00;;;;;;4975465;28;20665;-88
2020/12/28 04:38:08;;;;;;;30.40;2.45;;;2.80;79.80;;;;;;4976411;28;20018;-88
2020/12/28 04:40:34;;;;;;;23.80;2.15;;;2.90;80.00;;;;;;4975936;28;20157;-89
2020/12/28 04:43:01;;;;;;;8.07;1.67;;;2.90;79.40;;;;;;4975859;28;20065;-89
2020/12/28 04:45:28;;;;;;;7.30;1.25;;;2.90;79.50;;;;;;4991315;28;20137;-88
2020/12/28 04:47:55;;;;;;;9.77;1.25;;;2.70;79.00;;;;;;4992101;28;20097;-89
2020/12/28 04:50:21;;;;;;;6.00;1.42;;;2.90;79.30;;;;;;4975607;28;20033;-89
2020/12/28 04:52:46;;;;;;;2.88;1.70;;;3.10;78.30;;;;;;4991747;28;20034;-89
2020/12/28 04:55:12;;;;;;;4.53;1.17;;;3.00;76.90;;;;;;4975295;28;20030;-89
2020/12/28 04:57:38;;;;;;;4.03;1.65;;;3.00;77.70;;;;;;4975683;28;20388;-88
2020/12/28 05:00:05;;;;;;;3.95;1.08;;;3.10;77.40;;;;;;4975332;28;20054;-88
2020/12/28 05:02:32;;;;;;;1.67;1.10;;;3.30;75.40;;;;;;4975532;28;20048;-88
2020/12/28 05:05:06;;;;;;;4.45;1.50;;;3.30;74.70;;;;;;4975288;28;20030;-89
2020/12/28 05:07:33;;;;;;;15.18;2.28;;;3.30;73.60;;;;;;4975654;28;20462;-89
2020/12/28 05:10:00;;;;;;;32.22;3.38;;;3.20;74.10;;;;;;4975991;28;20034;-89
2020/12/28 05:12:26;;;;;;;35.38;3.30;;;3.30;74.30;;;;;;4979530;28;20034;-89
2020/12/28 05:15:03;;;;;;;21.08;5.18;;;3.20;74.50;;;;;;4986213;28;20391;-89
2020/12/28 05:17:29;;;;;;;6.75;3.28;;;3.20;75.60;;;;;;4975298;28;20022;-89
2020/12/28 05:20:00;;;;;;;5.70;2.42;;;3.30;74.70;;;;;;4975235;28;20181;-88
2020/12/28 05:22:27;;;;;;;34.55;4.18;;;3.20;73.50;;;;;;4975224;28;20081;-88
2020/12/28 05:24:53;;;;;;;21.50;3.15;;;3.10;72.50;;;;;;4974753;28;20034;-89
2020/12/28 05:27:19;;;;;;;18.75;2.50;;;3.00;71.30;;;;;;4975279;28;20116;-89
2020/12/28 05:29:47;;;;;;;43.05;3.15;;;3.00;72.40;;;;;;4974019;28;20686;-89
2020/12/28 05:32:15;;;;;;;17.25;2.58;;;3.00;69.90;;;;;;4991328;28;20053;-89
2020/12/28 05:34:44;;;;;;;14.45;2.58;;;3.10;70.90;;;;;;4990730;28;20077;-89
2020/12/28 05:37:11;;;;;;;57.25;4.60;;;3.20;70.20;;;;;;4975212;28;20047;-89
2020/12/28 05:39:37;;;;;;;45.45;4.68;;;3.20;69.30;;;;;;4974928;28;20478;-88
2020/12/28 05:42:14;;;;;;;49.38;4.93;;;3.30;70.20;;;;;;4991346;28;20038;-89
2020/12/28 05:44:44;;;;;;;15.02;2.85;;;3.20;68.60;;;;;;4974766;28;20117;-89
2020/12/28 05:47:15;;;;;;;11.32;3.28;;;3.40;68.00;;;;;;4974891;28;20058;-89
2020/12/28 05:49:43;;;;;;;4.70;2.30;;;3.40;67.40;;;;;;4975005;28;20026;-89
2020/12/28 05:52:16;;;;;;;201.10;18.08;;;3.50;66.90;;;;;;4974917;28;20081;-88
2020/12/28 05:54:43;;;;;;;35.00;4.82;;;3.60;66.90;;;;;;4990808;28;20024;-88
2020/12/28 05:57:09;;;;;;;15.30;2.83;;;3.50;66.70;;;;;;4977348;28;20030;-89
2020/12/28 05:59:36;;;;;;;99.20;7.10;;;3.50;67.10;;;;;;4978578;28;20152;-88
2020/12/28 06:02:03;;;;;;;18.75;3.53;;;3.40;67.20;;;;;;4978650;28;20026;-89
2020/12/28 06:04:29;;;;;;;11.45;2.70;;;3.30;67.90;;;;;;4978382;28;20022;-88
2020/12/28 06:07:00;;;;;;;19.30;2.72;;;3.20;69.30;;;;;;4978615;28;20117;-89
2020/12/28 06:09:26;;;;;;;23.67;3.35;;;2.90;70.30;;;;;;4978560;28;20023;-89
2020/12/28 06:12:03;;;;;;;10.25;3.53;;;2.80;70.60;;;;;;4978448;28;20040;-89
2020/12/28 06:14:34;;;;;;;4.15;2.60;;;2.50;72.30;;;;;;4977980;28;20022;-89
2020/12/28 06:17:07;;;;;;;90.85;6.68;;;2.50;74.00;;;;;;4978340;28;20666;-88
2020/12/28 06:19:33;;;;;;;51.30;5.35;;;2.60;72.30;;;;;;4995102;28;20026;-89
2020/12/28 06:21:59;;;;;;;13.48;3.47;;;2.70;71.20;;;;;;4978825;28;20030;-89
2020/12/28 06:24:33;;;;;;;12.02;4.15;;;2.80;71.70;;;;;;4978044;28;20076;-89
2020/12/28 06:27:10;;;;;;;52.83;5.75;;;3.00;71.40;;;;;;4978642;28;20396;-89
2020/12/28 06:29:37;;;;;;;25.52;4.25;;;3.00;71.20;;;;;;4993655;28;20061;-88
2020/12/28 06:32:14;;;;;;;18.58;4.22;;;3.00;71.40;;;;;;4978344;28;20050;-89
2020/12/28 06:34:41;;;;;;;3.67;2.88;;;3.10;70.40;;;;;;4978057;28;20105;-88
2020/12/28 06:37:07;;;;;;;7.25;3.00;;;3.20;69.30;;;;;;4978417;28;20072;-89
2020/12/28 06:39:33;;;;;;;120.75;9.57;;;3.10;68.90;;;;;;4978215;28;20022;-88
2020/12/28 06:42:13;;;;;;;40.92;6.38;;;3.10;68.40;;;;;;4978363;28;20034;-89
2020/12/28 06:44:40;;;;;;;13.38;3.47;;;2.90;69.10;;;;;;4977805;28;20085;-89
2020/12/28 06:47:18;;;;;;;65.05;8.10;;;3.10;69.10;;;;;;4978380;28;20403;-88
2020/12/28 06:49:43;;;;;;;78.95;6.30;;;3.00;69.20;;;;;;4977900;28;20033;-89
2020/12/28 06:52:10;;;;;;;19.35;3.70;;;3.00;69.00;;;;;;4977776;28;20042;-89
2020/12/28 06:54:36;;;;;;;37.50;5.18;;;3.00;70.40;;;;;;4993871;28;20421;-89
2020/12/28 06:57:03;;;;;;;24.77;5.03;;;3.00;69.20;;;;;;4994014;28;20109;-89
2020/12/28 06:59:28;;;;;;;15.10;4.13;;;2.90;69.10;;;;;;4977925;28;20034;-89
2020/12/28 07:01:55;;;;;;;68.50;8.27;;;3.10;69.50;;;;;;4977696;28;20030;-89
2020/12/28 07:04:21;;;;;;;31.02;6.05;;;3.00;69.40;;;;;;4977313;28;20073;-89
2020/12/28 07:06:46;;;;;;;44.92;6.00;;;3.20;70.10;;;;;;4977668;28;20031;-89
2020/12/28 07:09:12;;;;;;;25.48;5.05;;;3.10;69.10;;;;;;4976660;28;20022;-89
2020/12/28 07:11:38;;;;;;;27.30;4.90;;;3.20;69.80;;;;;;4977392;28;20023;-88
2020/12/28 07:14:07;;;;;;;59.20;6.03;;;3.00;70.00;;;;;;4977054;28;20072;-89
2020/12/28 07:16:33;;;;;;;19.13;4.93;;;2.80;70.50;;;;;;4980814;28;20129;-88
2020/12/28 07:19:06;;;;;;;12.27;3.95;;;2.90;71.50;;;;;;4978686;28;20169;-89
2020/12/28 07:21:32;;;;;;;20.08;4.63;;;2.90;71.20;;;;;;4977623;28;20026;-89
2020/12/28 07:23:58;;;;;;;61.33;8.10;;;2.80;71.50;;;;;;4977588;28;20057;-89
2020/12/28 07:26:24;;;;;;;13.48;3.92;;;3.00;71.20;;;;;;4976944;28;20057;-89
2020/12/28 07:28:50;;;;;;;25.95;3.90;;;3.10;70.20;;;;;;4978620;28;20022;-89
2020/12/28 07:31:22;;;;;;;51.38;5.95;;;3.10;70.20;;;;;;4977882;28;20514;-89
2020/12/28 07:33:48;;;;;;;24.80;5.28;;;2.90;70.50;;;;;;4979184;28;20023;-89
2020/12/28 07:36:15;;;;;;;35.53;5.90;;;2.80;71.40;;;;;;4977741;28;20128;-88
2020/12/28 07:38:43;;;;;;;26.80;5.45;;;2.70;72.50;;;;;;4977243;28;20033;-89
2020/12/28 07:41:20;;;;;;;19.45;4.65;;;2.50;72.80;;;;;;4976958;28;20477;-88
2020/12/28 07:43:53;;;;;;;44.40;5.47;;;2.60;73.90;;;;;;4977008;28;20041;-89
2020/12/28 07:46:30;;;;;;;28.08;5.20;;;2.50;73.30;;;;;;4993078;28;20106;-89
2020/12/28 07:49:02;;;;;;;153.18;14.18;;;2.70;73.20;;;;;;4992872;28;20026;-88
2020/12/28 07:51:28;;;;;;;63.17;8.60;;;2.70;73.50;;;;;;4992953;28;20023;-89
2020/12/28 07:54:03;;;;;;;58.05;8.77;;;2.60;72.10;;;;;;4977046;28;20041;-89
2020/12/28 07:56:38;;;;;;;57.40;11.80;;;2.50;71.80;;;;;;4977030;28;20022;-88
2020/12/28 07:59:04;;;;;;;36.00;9.27;;;2.70;72.00;;;;;;4976863;28;20464;-88
2020/12/28 08:01:42;;;;;;;59.60;9.60;;;2.70;72.00;;;;;;4994369;28;20022;-88
2020/12/28 08:04:10;;;;;;;46.53;9.02;;;2.90;72.00;;;;;;4976190;28;20034;-89
2020/12/28 08:06:37;;;;;;;71.18;11.45;;;3.00;70.50;;;;;;4976569;28;20032;-89
2020/12/28 08:09:04;;;;;;;114.63;14.07;;;2.90;71.20;;;;;;4976663;28;20050;-89
2020/12/28 08:11:32;;;;;;;111.63;14.18;;;3.00;72.00;;;;;;4976791;28;20062;-89
2020/12/28 08:13:58;;;;;;;45.05;6.10;;;3.00;71.40;;;;;;4992887;28;20034;-90
2020/12/28 08:16:27;;;;;;;41.58;7.72;;;3.00;70.80;;;;;;4976183;28;20510;-89
2020/12/28 08:18:55;;;;;;;28.15;7.10;;;3.00;71.00;;;;;;4977059;28;20101;-88
2020/12/28 08:21:23;;;;;;;37.78;7.82;;;3.10;70.30;;;;;;4976762;28;20085;-89
2020/12/28 08:23:50;;;;;;;88.28;10.40;;;3.10;70.20;;;;;;4976779;28;20026;-88
2020/12/28 08:26:27;;;;;;;68.35;10.27;;;3.00;70.40;;;;;;4976896;28;20030;-89
2020/12/28 08:28:58;;;;;;;44.78;8.35;;;3.10;71.50;;;;;;4977874;28;20027;-89
2020/12/28 08:31:25;;;;;;;125.03;14.90;;;3.10;70.70;;;;;;4976243;28;20026;-88
2020/12/28 08:34:07;;;;;;;39.67;6.93;;;3.10;70.30;;;;;;4978240;28;20027;-88
2020/12/28 08:36:34;;;;;;;;;;;3.20;70.90;;;;;;4978517;28;20027;-87
2020/12/28 08:39:23;;;;;;;36.53;7.07;;;3.20;70.90;;;;;;4997679;28;19908;-89
2020/12/28 08:41:50;;;;;;;27.15;6.75;;;3.20;71.00;;;;;;4989853;28;20048;-90
2020/12/28 08:44:33;;;;;;;61.75;8.48;;;3.20;70.30;;;;;;4997580;28;20023;-89
2020/12/28 08:47:00;;;;;;;21.58;5.88;;;3.00;70.80;;;;;;4981195;28;20033;-89
2020/12/28 08:49:27;;;;;;;52.17;7.05;;;3.10;72.10;;;;;;4981630;28;20053;-89
2020/12/28 08:51:54;;;;;;;91.13;11.00;;;3.10;72.20;;;;;;4997526;28;20025;-89
2020/12/28 08:54:28;;;;;;;65.95;8.45;;;3.20;71.80;;;;;;4984605;28;20049;-89
2020/12/28 08:56:54;;;;;;;47.00;7.40;;;3.00;71.80;;;;;;4997279;28;20053;-89
2020/12/28 08:59:20;;;;;;;51.83;7.00;;;3.10;71.70;;;;;;4993347;28;20022;-89
2020/12/28 09:01:54;;;;;;;55.58;9.02;;;3.10;72.30;;;;;;4986608;28;20021;-89
2020/12/28 09:04:21;;;;;;;41.45;9.23;;;2.90;73.10;;;;;;4978880;28;20033;-89
2020/12/28 09:06:52;;;;;;;68.22;8.82;;;3.00;73.00;;;;;;4976971;28;20025;-89
2020/12/28 09:09:35;;;;;;;30.00;6.28;;;3.00;72.70;;;;;;4975770;28;20029;-89
2020/12/28 09:12:04;;;;;;;61.30;7.22;;;3.00;72.20;;;;;;4975383;28;20022;-88
2020/12/28 09:14:43;;;;;;;80.10;8.88;;;3.00;72.30;;;;;;4974838;28;20546;-88
2020/12/28 09:17:09;;;;;;;38.50;9.00;;;3.10;71.90;;;;;;4974605;28;20022;-88
2020/12/28 09:19:45;;;;;;;62.63;8.13;;;3.20;73.00;;;;;;4975475;28;20396;-89
2020/12/28 09:22:11;;;;;;;82.07;9.55;;;3.30;71.50;;;;;;4992173;28;20026;-89
2020/12/28 09:24:44;;;;;;;22.00;8.75;;;3.20;71.00;;;;;;4974840;28;20032;-88
2020/12/28 09:27:10;;;;;;;43.95;10.90;;;3.10;72.40;;;;;;4975072;28;20040;-89
2020/12/28 09:29:37;;;;;;;39.53;9.95;;;3.10;72.40;;;;;;4975005;28;20030;-87
2020/12/28 09:32:06;;;;;;;36.15;13.05;;;2.90;73.40;;;;;;4978419;28;20034;-89
2020/12/28 09:34:32;;;;;;;35.20;10.13;;;2.90;73.90;;;;;;4998201;28;20034;-89
2020/12/28 09:37:02;;;;;;;109.85;15.50;;;3.10;74.60;;;;;;5006377;28;20022;-89
2020/12/28 09:39:28;;;;;;;174.88;19.92;;;3.10;74.10;;;;;;4993925;28;20113;-89
2020/12/28 09:41:54;;;;;;;93.70;22.48;;;3.10;74.10;;;;;;4991483;28;20102;-89
2020/12/28 09:44:19;;;;;;;58.92;18.33;;;3.10;74.30;;;;;;4990759;28;20034;-88
2020/12/28 09:46:58;;;;;;;41.35;14.18;;;3.10;74.20;;;;;;4975167;28;20026;-89
2020/12/28 09:49:24;;;;;;;42.65;12.32;;;3.30;74.90;;;;;;4987366;28;20026;-89
2020/12/28 09:51:54;;;;;;;78.00;15.75;;;3.30;73.70;;;;;;4994709;28;20032;-89
2020/12/28 09:54:23;;;;;;;51.30;13.55;;;3.30;74.00;;;;;;4993870;28;20041;-88
2020/12/28 09:56:49;;;;;;;29.98;9.98;;;3.20;74.00;;;;;;4994575;28;20141;-88
2020/12/28 09:59:16;;;;;;;53.22;8.88;;;3.20;74.60;;;;;;4994417;28;20029;-89
2020/12/28 10:01:45;;;;;;;83.90;15.63;;;3.00;75.40;;;;;;4994060;28;20037;-90
2020/12/28 10:04:12;;;;;;;63.30;14.25;;;3.30;75.40;;;;;;4989368;28;20034;-89
2020/12/28 10:06:39;;;;;;;26.63;11.07;;;3.40;75.00;;;;;;4988372;28;20029;-89
2020/12/28 10:09:07;;;;;;;50.22;14.23;;;3.40;74.90;;;;;;5011727;28;20048;-89
2020/12/28 10:11:33;;;;;;;77.13;13.20;;;3.40;74.30;;;;;;5009099;28;20121;-88
2020/12/28 10:13:59;;;;;;;39.88;10.02;;;3.30;74.90;;;;;;4994305;28;20125;-89
2020/12/28 10:16:27;;;;;;;22.27;8.77;;;3.30;75.20;;;;;;4993518;28;20042;-89
2020/12/28 10:18:53;;;;;;;45.97;14.10;;;3.40;75.40;;;;;;4994278;28;20018;-88
2020/12/28 10:21:20;;;;;;;44.78;12.68;;;3.40;75.40;;;;;;4994622;28;20056;-88
2020/12/28 10:23:46;;;;;;;66.68;11.00;;;3.40;75.40;;;;;;4994655;28;20422;-88
2020/12/28 10:26:26;;;;;;;71.57;10.55;;;3.60;75.10;;;;;;4993978;28;20059;-89
2020/12/28 10:28:53;;;;;;;22.58;8.23;;;3.50;74.90;;;;;;4994525;28;20022;-89
2020/12/28 10:31:21;;;;;;;73.93;10.75;;;3.60;75.30;;;;;;4994048;28;20112;-88
2020/12/28 10:33:48;;;;;;;25.92;9.95;;;3.50;75.60;;;;;;4993388;28;20114;-89
2020/12/28 10:36:32;;;;;;;50.08;10.55;;;3.60;75.50;;;;;;4993715;28;20022;-89
2020/12/28 10:38:58;;;;;;;72.88;10.52;;;3.60;75.30;;;;;;4995160;28;20028;-89
2020/12/28 10:41:28;;;;;;;31.63;6.82;;;3.70;75.20;;;;;;4991990;28;20055;-89
2020/12/28 10:43:54;;;;;;;29.55;7.70;;;3.90;74.50;;;;;;4996061;28;20037;-89
2020/12/28 10:46:20;;;;;;;24.73;8.60;;;3.90;74.10;;;;;;4997082;28;20471;-89
2020/12/28 10:48:46;;;;;;;84.90;11.75;;;3.90;75.10;;;;;;4997708;28;20419;-89
2020/12/28 10:51:26;;;;;;;42.08;10.05;;;4.00;76.00;;;;;;4997225;28;20029;-89
2020/12/28 10:53:54;;;;;;;37.38;7.00;;;3.90;77.40;;;;;;4997886;28;20117;-89
2020/12/28 10:56:24;;;;;;;16.90;6.07;;;3.90;78.60;;;;;;4997624;28;20036;-89
2020/12/28 10:58:50;;;;;;;13.55;6.68;;;3.70;79.00;;;;;;4997377;28;20442;-89
2020/12/28 11:01:15;;;;;;;28.45;7.50;;;3.80;79.80;;;;;;5013504;28;20025;-89
2020/12/28 11:03:41;;;;;;;77.07;12.40;;;3.80;80.40;;;;;;4997195;28;20044;-89
2020/12/28 11:06:06;;;;;;;22.33;9.30;;;3.80;80.30;;;;;;4996986;28;20547;-89
2020/12/28 11:08:32;;;;;;;13.23;5.35;;;3.80;80.40;;;;;;4997523;28;20388;-89
2020/12/28 11:10:58;;;;;;;31.67;10.70;;;3.70;80.70;;;;;;4997776;28;20038;-89
2020/12/28 11:13:23;;;;;;;23.25;7.82;;;3.70;81.80;;;;;;4997276;28;20032;-89
2020/12/28 11:15:49;;;;;;;10.80;3.95;;;3.80;81.40;;;;;;4996848;28;20025;-89
2020/12/28 11:18:15;;;;;;;17.88;4.45;;;4.00;80.70;;;;;;4996747;28;20022;-89
2020/12/28 11:20:41;;;;;;;116.88;12.07;;;4.00;80.10;;;;;;4997005;28;20230;-89
2020/12/28 11:23:06;;;;;;;92.60;9.77;;;4.10;79.20;;;;;;4996891;28;20033;-90
2020/12/28 11:25:33;;;;;;;20.52;6.25;;;4.10;79.50;;;;;;4996492;28;20040;-90
2020/12/28 11:27:58;;;;;;;17.80;5.55;;;4.20;79.60;;;;;;4996803;28;20049;-90
2020/12/28 11:30:24;;;;;;;11.05;7.05;;;4.20;80.00;;;;;;4996945;28;20411;-89
2020/12/28 11:32:50;;;;;;;17.80;6.65;;;4.20;79.30;;;;;;4996466;28;20032;-89
2020/12/28 11:35:15;;;;;;;35.40;7.80;;;4.30;78.70;;;;;;4996545;28;20022;-90
2020/12/28 11:37:41;;;;;;;33.28;8.43;;;4.30;78.80;;;;;;4995787;28;20045;-89
2020/12/28 11:40:07;;;;;;;29.50;7.70;;;4.30;78.10;;;;;;4996805;28;20022;-90
2020/12/28 11:42:33;;;;;;;55.92;10.13;;;4.30;79.10;;;;;;4996467;28;20030;-90
2020/12/28 11:44:59;;;;;;;38.80;9.48;;;4.20;78.70;;;;;;4995941;28;20025;-89
2020/12/28 11:47:24;;;;;;;62.30;10.07;;;4.10;79.60;;;;;;4996464;28;20025;-89
2020/12/28 11:49:50;;;;;;;75.45;14.25;;;4.20;79.70;;;;;;4996403;28;20080;-89
2020/12/28 11:52:17;;;;;;;68.97;14.50;;;4.50;79.30;;;;;;5012665;28;20026;-90
2020/12/28 11:54:43;;;;;;;55.95;11.43;;;4.60;78.50;;;;;;4995919;28;20076;-90
2020/12/28 11:57:09;;;;;;;58.63;12.98;;;4.50;77.90;;;;;;4996133;28;20025;-89
2020/12/28 11:59:35;;;;;;;33.47;8.30;;;4.50;77.60;;;;;;4996106;28;20121;-89
2020/12/28 12:02:01;;;;;;;54.92;9.57;;;4.60;77.30;;;;;;4996045;28;20036;-89
2020/12/28 12:07:10;;;;;;;94.15;17.55;;;4.50;78.30;;;;;;5012633;28;20022;-89
2020/12/28 12:09:36;;;;;;;62.13;14.77;;;4.60;78.30;;;;;;4995865;28;20030;-90
2020/12/28 12:12:02;;;;;;;75.05;17.08;;;4.60;77.80;;;;;;4996563;28;20036;-90
2020/12/28 12:14:27;;;;;;;43.58;14.27;;;4.70;78.00;;;;;;4990133;28;20027;-89
2020/12/28 12:16:53;;;;;;;86.20;16.73;;;4.80;76.90;;;;;;4976630;28;20506;-89
2020/12/28 12:19:19;;;;;;;47.40;16.10;;;4.80;76.20;;;;;;4986922;28;20089;-91
2020/12/28 12:21:45;;;;;;;37.83;15.02;;;4.60;75.50;;;;;;4987903;28;20449;-89
2020/12/28 12:24:28;;;;;;;73.80;18.40;;;4.70;76.70;;;;;;4995808;28;20025;-90
2020/12/28 12:26:54;;;;;;;19.23;10.05;;;4.70;75.20;;;;;;4995829;28;20026;-90
2020/12/28 12:29:19;;;;;;;39.08;10.38;;;4.70;73.10;;;;;;4995449;28;20084;-90
2020/12/28 12:31:49;;;;;;;111.53;16.60;;;4.60;74.60;;;;;;4995559;28;20029;-90
2020/12/28 12:34:14;;;;;;;54.03;11.60;;;4.60;75.20;;;;;;4994894;28;20384;-90
2020/12/28 12:36:40;;;;;;;43.50;10.50;;;4.50;75.90;;;;;;4995282;28;20045;-91
2020/12/28 12:39:06;;;;;;;23.58;9.60;;;4.50;76.30;;;;;;4994389;28;20101;-90
2020/12/28 12:41:31;;;;;;;26.27;7.15;;;4.50;78.60;;;;;;4992626;28;20037;-90
2020/12/28 12:44:07;;;;;;;33.03;7.22;;;4.40;78.00;;;;;;4995202;28;20391;-90
2020/12/28 12:46:33;;;;;;;34.40;6.97;;;4.40;79.10;;;;;;4995375;28;20025;-90
2020/12/28 12:49:00;;;;;;;26.75;7.82;;;4.30;79.80;;;;;;4995294;28;20026;-91
2020/12/28 12:51:26;;;;;;;33.42;8.70;;;4.50;80.20;;;;;;4995148;28;20022;-89